sensor_id;sensor_type;location;lat;lon;timestamp;pressure;altitude;pressure_sealevel;temperature;humidity
61757;BME280;57225;61.460;24.060;2023-03-31T00:02:24;99439.28;;;-13.01;100.00
61757;BME280;57225;61.460;24.060;2023-03-31T00:05:12;99430.41;;;-13.12;100.00
61757;BME280;57225;61.460;24.060;2023-03-31T00:08:00;99427.22;;;-13.14;100.00
61757;BME280;57225;61.460;24.060;2023-03-31T00:10:46;99424.78;;;-13.10;100.00
61757;BME280;57225;61.460;24.060;2023-03-31T00:13:31;99421.84;;;-13.14;100.00
61757;BME280;57225;61.460;24.060;2023-03-31T00:16:15;99426.94;;;-13.22;100.00
61757;BME280;57225;61.460;24.060;2023-03-31T00:19:00;99424.28;;;-13.22;100.00
61757;BME280;57225;61.460;24.060;2023-03-31T00:21:46;99427.22;;;-13.19;100.00
61757;BME280;57225;61.460;24.060;2023-03-31T00:24:32;99422.09;;;-13.20;100.00
61757;BME280;57225;61.460;24.060;2023-03-31T00:27:29;99400.59;;;-13.51;100.00
61757;BME280;57225;61.460;24.060;2023-03-31T00:30:14;99417.69;;;-13.72;100.00
61757;BME280;57225;61.460;24.060;2023-03-31T00:32:59;99417.38;;;-13.75;100.00
61757;BME280;57225;61.460;24.060;2023-03-31T00:35:43;99412.28;;;-13.82;100.00
61757;BME280;57225;61.460;24.060;2023-03-31T00:38:28;99413.91;;;-13.71;100.00
61757;BME280;57225;61.460;24.060;2023-03-31T00:41:14;99414.22;;;-13.67;100.00
61757;BME280;57225;61.460;24.060;2023-03-31T00:47:18;99410.50;;;-13.56;100.00
61757;BME280;57225;61.460;24.060;2023-03-31T00:50:14;99408.63;;;-13.56;100.00
61757;BME280;57225;61.460;24.060;2023-03-31T00:53:06;99416.94;;;-13.52;100.00
61757;BME280;57225;61.460;24.060;2023-03-31T00:55:54;99414.53;;;-13.54;100.00
61757;BME280;57225;61.460;24.060;2023-03-31T00:58:41;99412.66;;;-13.53;100.00
61757;BME280;57225;61.460;24.060;2023-03-31T01:01:27;99417.97;;;-13.58;100.00
61757;BME280;57225;61.460;24.060;2023-03-31T01:04:13;99408.06;;;-13.63;100.00
61757;BME280;57225;61.460;24.060;2023-03-31T01:07:25;99410.16;;;-13.75;100.00
61757;BME280;57225;61.460;24.060;2023-03-31T01:10:13;99403.22;;;-13.71;100.00
61757;BME280;57225;61.460;24.060;2023-03-31T01:12:58;99408.88;;;-13.67;100.00
61757;BME280;57225;61.460;24.060;2023-03-31T01:15:43;99398.41;;;-13.64;100.00
61757;BME280;57225;61.460;24.060;2023-03-31T01:18:28;99377.78;;;-13.73;100.00
61757;BME280;57225;61.460;24.060;2023-03-31T01:21:44;99402.44;;;-13.61;100.00
61757;BME280;57225;61.460;24.060;2023-03-31T01:24:44;99404.00;;;-13.70;100.00
61757;BME280;57225;61.460;24.060;2023-03-31T01:40:09;99404.16;;;-14.02;100.00
61757;BME280;57225;61.460;24.060;2023-03-31T01:43:09;99403.31;;;-14.08;100.00
61757;BME280;57225;61.460;24.060;2023-03-31T01:46:08;99403.03;;;-14.16;100.00
61757;BME280;57225;61.460;24.060;2023-03-31T01:49:21;99404.81;;;-14.27;100.00
61757;BME280;57225;61.460;24.060;2023-03-31T01:52:21;99396.75;;;-14.42;100.00
61757;BME280;57225;61.460;24.060;2023-03-31T01:55:12;99396.06;;;-14.59;100.00
61757;BME280;57225;61.460;24.060;2023-03-31T01:58:05;99392.56;;;-14.65;100.00
61757;BME280;57225;61.460;24.060;2023-03-31T02:01:16;99393.13;;;-14.63;100.00
61757;BME280;57225;61.460;24.060;2023-03-31T02:04:08;99387.22;;;-14.65;100.00
61757;BME280;57225;61.460;24.060;2023-03-31T02:07:01;99387.66;;;-14.78;100.00
61757;BME280;57225;61.460;24.060;2023-03-31T02:09:55;99377.38;;;-14.91;100.00
61757;BME280;57225;61.460;24.060;2023-03-31T02:12:42;99376.94;;;-14.83;100.00
61757;BME280;57225;61.460;24.060;2023-03-31T02:15:31;99378.47;;;-14.92;100.00
61757;BME280;57225;61.460;24.060;2023-03-31T02:18:20;99375.28;;;-14.89;100.00
61757;BME280;57225;61.460;24.060;2023-03-31T02:21:10;99373.44;;;-14.84;100.00
61757;BME280;57225;61.460;24.060;2023-03-31T02:23:59;99364.16;;;-14.76;100.00
61757;BME280;57225;61.460;24.060;2023-03-31T02:26:51;99370.59;;;-14.72;100.00
61757;BME280;57225;61.460;24.060;2023-03-31T02:29:37;99367.38;;;-14.74;100.00
61757;BME280;57225;61.460;24.060;2023-03-31T02:35:18;99361.66;;;-14.88;100.00
61757;BME280;57225;61.460;24.060;2023-03-31T02:38:03;99368.09;;;-14.84;100.00
61757;BME280;57225;61.460;24.060;2023-03-31T02:40:50;99363.31;;;-14.82;100.00
61757;BME280;57225;61.460;24.060;2023-03-31T02:43:34;99367.28;;;-14.84;100.00
61757;BME280;57225;61.460;24.060;2023-03-31T02:46:20;99367.00;;;-14.88;100.00
61757;BME280;57225;61.460;24.060;2023-03-31T02:49:06;99370.50;;;-14.87;100.00
61757;BME280;57225;61.460;24.060;2023-03-31T02:55:52;99362.97;;;-14.90;100.00
61757;BME280;57225;61.460;24.060;2023-03-31T03:02:15;99360.28;;;-14.90;100.00
61757;BME280;57225;61.460;24.060;2023-03-31T03:08:31;99349.06;;;-14.92;100.00
61757;BME280;57225;61.460;24.060;2023-03-31T03:11:45;99352.25;;;-14.95;100.00
61757;BME280;57225;61.460;24.060;2023-03-31T03:14:38;99347.97;;;-14.96;100.00
61757;BME280;57225;61.460;24.060;2023-03-31T03:20:12;99348.72;;;-15.01;100.00
61757;BME280;57225;61.460;24.060;2023-03-31T03:22:57;99346.88;;;-15.00;100.00
61757;BME280;57225;61.460;24.060;2023-03-31T03:25:42;99345.75;;;-15.04;100.00
61757;BME280;57225;61.460;24.060;2023-03-31T03:28:26;99352.66;;;-15.09;100.00
61757;BME280;57225;61.460;24.060;2023-03-31T03:31:10;99353.41;;;-15.18;100.00
61757;BME280;57225;61.460;24.060;2023-03-31T03:33:56;99352.84;;;-15.20;100.00
61757;BME280;57225;61.460;24.060;2023-03-31T03:36:40;99349.13;;;-15.19;100.00
61757;BME280;57225;61.460;24.060;2023-03-31T03:39:24;99352.84;;;-15.20;100.00
61757;BME280;57225;61.460;24.060;2023-03-31T03:42:09;99344.78;;;-15.25;100.00
61757;BME280;57225;61.460;24.060;2023-03-31T03:44:53;99349.81;;;-15.29;100.00
61757;BME280;57225;61.460;24.060;2023-03-31T03:47:38;99343.38;;;-15.33;100.00
61757;BME280;57225;61.460;24.060;2023-03-31T03:50:22;99347.63;;;-15.37;100.00
61757;BME280;57225;61.460;24.060;2023-03-31T03:53:07;99345.41;;;-15.45;100.00
61757;BME280;57225;61.460;24.060;2023-03-31T03:55:51;99342.44;;;-15.80;98.97
61757;BME280;57225;61.460;24.060;2023-03-31T03:58:36;99342.81;;;-15.94;100.00
61757;BME280;57225;61.460;24.060;2023-03-31T04:01:20;99341.88;;;-15.82;100.00
61757;BME280;57225;61.460;24.060;2023-03-31T04:04:05;99348.91;;;-15.71;100.00
61757;BME280;57225;61.460;24.060;2023-03-31T04:06:50;99338.25;;;-15.71;100.00
61757;BME280;57225;61.460;24.060;2023-03-31T04:09:35;99337.56;;;-15.83;100.00
61757;BME280;57225;61.460;24.060;2023-03-31T04:12:19;99347.06;;;-15.93;100.00
61757;BME280;57225;61.460;24.060;2023-03-31T04:15:04;99338.75;;;-15.74;100.00
61757;BME280;57225;61.460;24.060;2023-03-31T04:17:48;99341.31;;;-15.84;99.42
61757;BME280;57225;61.460;24.060;2023-03-31T04:20:37;99343.81;;;-16.00;99.70
61757;BME280;57225;61.460;24.060;2023-03-31T04:23:22;99336.28;;;-16.03;100.00
61757;BME280;57225;61.460;24.060;2023-03-31T04:26:09;99337.28;;;-16.09;99.93
61757;BME280;57225;61.460;24.060;2023-03-31T04:28:54;99333.91;;;-15.77;100.00
61757;BME280;57225;61.460;24.060;2023-03-31T04:31:43;99337.75;;;-15.68;100.00
61757;BME280;57225;61.460;24.060;2023-03-31T04:34:28;99324.81;;;-15.50;100.00
61757;BME280;57225;61.460;24.060;2023-03-31T04:37:18;99332.56;;;-15.48;100.00
61757;BME280;57225;61.460;24.060;2023-03-31T04:40:03;99330.41;;;-15.51;99.50
61757;BME280;57225;61.460;24.060;2023-03-31T04:42:50;99326.19;;;-15.42;100.00
61757;BME280;57225;61.460;24.060;2023-03-31T04:45:35;99332.16;;;-15.35;100.00
61757;BME280;57225;61.460;24.060;2023-03-31T04:48:19;99326.41;;;-15.17;100.00
61757;BME280;57225;61.460;24.060;2023-03-31T04:51:04;99323.88;;;-15.01;100.00
61757;BME280;57225;61.460;24.060;2023-03-31T04:53:49;99331.16;;;-14.92;100.00
61757;BME280;57225;61.460;24.060;2023-03-31T04:56:33;99321.72;;;-14.68;100.00
61757;BME280;57225;61.460;24.060;2023-03-31T04:59:18;99319.13;;;-14.47;100.00
61757;BME280;57225;61.460;24.060;2023-03-31T05:02:02;99326.75;;;-14.09;100.00
61757;BME280;57225;61.460;24.060;2023-03-31T05:04:47;99333.34;;;-13.64;97.13
61757;BME280;57225;61.460;24.060;2023-03-31T05:07:31;99331.28;;;-13.17;92.78
61757;BME280;57225;61.460;24.060;2023-03-31T05:10:16;99324.53;;;-12.84;89.21
61757;BME280;57225;61.460;24.060;2023-03-31T05:13:00;99322.84;;;-12.44;88.05
61757;BME280;57225;61.460;24.060;2023-03-31T05:15:44;99328.94;;;-11.64;83.61
61757;BME280;57225;61.460;24.060;2023-03-31T05:18:31;99342.50;;;-11.41;80.87
61757;BME280;57225;61.460;24.060;2023-03-31T05:21:18;99333.06;;;-11.33;81.25
61757;BME280;57225;61.460;24.060;2023-03-31T05:24:05;99327.88;;;-11.19;81.69
61757;BME280;57225;61.460;24.060;2023-03-31T05:26:51;99319.28;;;-10.87;79.24
61757;BME280;57225;61.460;24.060;2023-03-31T05:29:37;99322.16;;;-10.50;77.40
61757;BME280;57225;61.460;24.060;2023-03-31T05:32:24;99321.75;;;-10.67;77.73
61757;BME280;57225;61.460;24.060;2023-03-31T05:35:11;99327.03;;;-9.86;75.59
61757;BME280;57225;61.460;24.060;2023-03-31T05:37:57;99325.63;;;-9.59;76.39
61757;BME280;57225;61.460;24.060;2023-03-31T05:40:44;99328.47;;;-9.51;75.92
61757;BME280;57225;61.460;24.060;2023-03-31T05:43:31;99328.31;;;-9.41;75.56
61757;BME280;57225;61.460;24.060;2023-03-31T05:46:17;99328.72;;;-8.96;74.52
61757;BME280;57225;61.460;24.060;2023-03-31T05:49:03;99334.06;;;-9.10;74.25
61757;BME280;57225;61.460;24.060;2023-03-31T05:51:50;99326.50;;;-9.08;74.94
61757;BME280;57225;61.460;24.060;2023-03-31T05:54:37;99326.09;;;-8.82;74.61
61757;BME280;57225;61.460;24.060;2023-03-31T05:57:24;99324.09;;;-8.44;75.97
61757;BME280;57225;61.460;24.060;2023-03-31T06:00:12;99324.69;;;-7.93;73.97
61757;BME280;57225;61.460;24.060;2023-03-31T06:02:57;99322.22;;;-8.03;73.54
61757;BME280;57225;61.460;24.060;2023-03-31T06:05:47;99315.50;;;-8.05;73.73
61757;BME280;57225;61.460;24.060;2023-03-31T06:08:32;99310.28;;;-8.43;76.70
61757;BME280;57225;61.460;24.060;2023-03-31T06:11:19;99318.88;;;-8.55;77.10
61757;BME280;57225;61.460;24.060;2023-03-31T06:14:04;99319.47;;;-8.90;79.44
61757;BME280;57225;61.460;24.060;2023-03-31T06:16:49;99313.34;;;-8.96;80.84
61757;BME280;57225;61.460;24.060;2023-03-31T06:19:33;99324.31;;;-9.06;82.84
61757;BME280;57225;61.460;24.060;2023-03-31T06:22:18;99323.56;;;-8.92;83.10
61757;BME280;57225;61.460;24.060;2023-03-31T06:25:07;99319.78;;;-8.78;84.97
61757;BME280;57225;61.460;24.060;2023-03-31T06:27:51;99328.38;;;-8.43;85.56
61757;BME280;57225;61.460;24.060;2023-03-31T06:30:36;99334.31;;;-8.74;89.97
61757;BME280;57225;61.460;24.060;2023-03-31T06:33:21;99331.16;;;-8.62;89.45
61757;BME280;57225;61.460;24.060;2023-03-31T06:36:07;99339.63;;;-8.69;90.65
61757;BME280;57225;61.460;24.060;2023-03-31T06:56:11;99333.59;;;-8.06;81.31
61757;BME280;57225;61.460;24.060;2023-03-31T06:58:55;99334.91;;;-7.76;86.39
61757;BME280;57225;61.460;24.060;2023-03-31T07:01:40;99337.84;;;-7.37;84.19
61757;BME280;57225;61.460;24.060;2023-03-31T07:04:25;99338.19;;;-7.16;79.85
61757;BME280;57225;61.460;24.060;2023-03-31T07:07:10;99349.63;;;-7.19;79.79
61757;BME280;57225;61.460;24.060;2023-03-31T07:09:54;99344.78;;;-6.64;80.32
61757;BME280;57225;61.460;24.060;2023-03-31T07:12:39;99346.34;;;-5.79;77.03
61757;BME280;57225;61.460;24.060;2023-03-31T07:15:24;99345.34;;;-5.17;73.72
61757;BME280;57225;61.460;24.060;2023-03-31T07:18:09;99339.22;;;-5.57;73.07
61757;BME280;57225;61.460;24.060;2023-03-31T07:20:55;99336.22;;;-5.39;77.67
61757;BME280;57225;61.460;24.060;2023-03-31T07:23:39;99339.91;;;-4.57;72.78
61757;BME280;57225;61.460;24.060;2023-03-31T07:26:24;99332.41;;;-4.69;70.51
61757;BME280;57225;61.460;24.060;2023-03-31T07:29:10;99328.25;;;-4.58;71.22
61757;BME280;57225;61.460;24.060;2023-03-31T07:31:54;99341.47;;;-3.84;73.09
61757;BME280;57225;61.460;24.060;2023-03-31T07:34:39;99345.53;;;-3.98;67.02
61757;BME280;57225;61.460;24.060;2023-03-31T07:37:24;99345.63;;;-4.24;68.98
61757;BME280;57225;61.460;24.060;2023-03-31T07:40:13;99348.88;;;-3.34;67.93
61757;BME280;57225;61.460;24.060;2023-03-31T07:42:58;99344.38;;;-3.59;67.37
61757;BME280;57225;61.460;24.060;2023-03-31T07:45:42;99343.78;;;-3.15;67.96
61757;BME280;57225;61.460;24.060;2023-03-31T07:48:27;99343.63;;;-3.39;65.60
61757;BME280;57225;61.460;24.060;2023-03-31T07:51:16;99342.94;;;-2.86;64.82
61757;BME280;57225;61.460;24.060;2023-03-31T07:54:01;99344.78;;;-2.57;69.27
61757;BME280;57225;61.460;24.060;2023-03-31T07:56:46;99344.81;;;-2.45;62.78
61757;BME280;57225;61.460;24.060;2023-03-31T07:59:30;99355.19;;;-2.06;61.92
61757;BME280;57225;61.460;24.060;2023-03-31T08:02:16;99345.34;;;-2.31;62.45
61757;BME280;57225;61.460;24.060;2023-03-31T08:05:01;99344.75;;;-1.91;61.37
61757;BME280;57225;61.460;24.060;2023-03-31T08:07:47;99347.78;;;-2.05;62.58
61757;BME280;57225;61.460;24.060;2023-03-31T08:10:31;99350.75;;;-1.98;59.67
61757;BME280;57225;61.460;24.060;2023-03-31T08:13:16;99348.75;;;-1.40;59.85
61757;BME280;57225;61.460;24.060;2023-03-31T08:16:01;99350.06;;;-0.98;61.90
61757;BME280;57225;61.460;24.060;2023-03-31T08:18:46;99342.69;;;-0.69;57.56
61757;BME280;57225;61.460;24.060;2023-03-31T08:21:30;99346.88;;;-0.32;60.42
61757;BME280;57225;61.460;24.060;2023-03-31T08:24:15;99337.94;;;-0.85;56.32
61757;BME280;57225;61.460;24.060;2023-03-31T08:27:17;99335.69;;;-0.55;56.88
61757;BME280;57225;61.460;24.060;2023-03-31T08:30:14;99330.38;;;-0.75;57.56
61757;BME280;57225;61.460;24.060;2023-03-31T08:32:58;99333.66;;;-0.14;54.77
61757;BME280;57225;61.460;24.060;2023-03-31T08:35:42;99325.47;;;-0.14;57.71
61757;BME280;57225;61.460;24.060;2023-03-31T08:38:27;99324.13;;;-0.20;55.74
61757;BME280;57225;61.460;24.060;2023-03-31T08:47:24;99320.78;;;0.33;54.64
61757;BME280;57225;61.460;24.060;2023-03-31T08:50:16;99304.78;;;0.20;57.56
61757;BME280;57225;61.460;24.060;2023-03-31T08:53:15;99325.59;;;0.71;56.01
61757;BME280;57225;61.460;24.060;2023-03-31T08:56:03;99324.50;;;0.57;52.33
61757;BME280;57225;61.460;24.060;2023-03-31T08:58:51;99325.03;;;0.47;53.44
61757;BME280;57225;61.460;24.060;2023-03-31T09:01:48;99319.81;;;0.92;55.01
61757;BME280;57225;61.460;24.060;2023-03-31T09:11:18;99309.78;;;1.99;53.06
61757;BME280;57225;61.460;24.060;2023-03-31T09:17:17;99312.31;;;1.28;51.24
61757;BME280;57225;61.460;24.060;2023-03-31T09:20:10;99307.28;;;1.10;51.76
61757;BME280;57225;61.460;24.060;2023-03-31T09:23:30;99303.66;;;0.71;52.55
61757;BME280;57225;61.460;24.060;2023-03-31T09:26:37;99295.97;;;0.96;53.43
61757;BME280;57225;61.460;24.060;2023-03-31T09:29:41;99289.41;;;0.82;53.09
61757;BME280;57225;61.460;24.060;2023-03-31T09:32:30;99284.06;;;1.08;53.73
61757;BME280;57225;61.460;24.060;2023-03-31T09:35:18;99279.75;;;0.88;53.10
61757;BME280;57225;61.460;24.060;2023-03-31T09:38:05;99289.19;;;0.90;54.16
61757;BME280;57225;61.460;24.060;2023-03-31T09:40:49;99286.19;;;1.14;53.16
61757;BME280;57225;61.460;24.060;2023-03-31T09:43:34;99279.94;;;0.79;52.99
61757;BME280;57225;61.460;24.060;2023-03-31T09:46:29;99282.34;;;1.00;51.82
61757;BME280;57225;61.460;24.060;2023-03-31T09:49:20;99271.78;;;0.48;52.64
61757;BME280;57225;61.460;24.060;2023-03-31T09:52:14;99276.00;;;0.61;54.84
61757;BME280;57225;61.460;24.060;2023-03-31T09:55:03;99282.34;;;0.65;52.87
61757;BME280;57225;61.460;24.060;2023-03-31T09:57:50;99280.03;;;1.21;54.11
61757;BME280;57225;61.460;24.060;2023-03-31T10:00:40;99273.69;;;0.98;53.74
61757;BME280;57225;61.460;24.060;2023-03-31T10:03:25;99271.94;;;0.90;54.06
61757;BME280;57225;61.460;24.060;2023-03-31T10:06:13;99275.97;;;0.76;55.45
61757;BME280;57225;61.460;24.060;2023-03-31T10:09:01;99277.94;;;1.14;54.40
61757;BME280;57225;61.460;24.060;2023-03-31T10:12:02;99277.66;;;0.81;53.96
61757;BME280;57225;61.460;24.060;2023-03-31T10:14:50;99271.88;;;0.86;55.94
61757;BME280;57225;61.460;24.060;2023-03-31T10:17:40;99273.38;;;0.84;54.26
61757;BME280;57225;61.460;24.060;2023-03-31T10:20:32;99266.84;;;0.88;55.99
61757;BME280;57225;61.460;24.060;2023-03-31T10:23:29;99281.56;;;1.38;54.69
61757;BME280;57225;61.460;24.060;2023-03-31T10:26:24;99285.38;;;1.33;54.57
61757;BME280;57225;61.460;24.060;2023-03-31T10:29:11;99281.63;;;1.03;55.91
61757;BME280;57225;61.460;24.060;2023-03-31T10:32:23;99281.56;;;0.99;55.80
61757;BME280;57225;61.460;24.060;2023-03-31T10:35:25;99273.75;;;1.20;54.12
61757;BME280;57225;61.460;24.060;2023-03-31T10:38:13;99271.75;;;1.17;53.46
61757;BME280;57225;61.460;24.060;2023-03-31T10:41:00;99274.84;;;1.16;54.27
61757;BME280;57225;61.460;24.060;2023-03-31T10:43:50;99275.50;;;1.09;52.24
61757;BME280;57225;61.460;24.060;2023-03-31T10:49:26;99272.66;;;1.64;55.04
61757;BME280;57225;61.460;24.060;2023-03-31T10:52:19;99271.72;;;1.56;51.79
61757;BME280;57225;61.460;24.060;2023-03-31T10:55:10;99263.00;;;1.73;52.52
61757;BME280;57225;61.460;24.060;2023-03-31T10:58:00;99267.31;;;1.93;55.12
61757;BME280;57225;61.460;24.060;2023-03-31T11:10:33;99257.22;;;1.78;48.64
61757;BME280;57225;61.460;24.060;2023-03-31T11:16:33;99242.06;;;2.11;50.15
61757;BME280;57225;61.460;24.060;2023-03-31T11:26:16;99249.22;;;2.98;47.96
61757;BME280;57225;61.460;24.060;2023-03-31T11:33:00;99248.66;;;3.48;50.46
61757;BME280;57225;61.460;24.060;2023-03-31T11:39:08;99249.38;;;3.08;41.72
61757;BME280;57225;61.460;24.060;2023-03-31T11:42:01;99248.03;;;2.65;46.71
61757;BME280;57225;61.460;24.060;2023-03-31T11:44:53;99232.41;;;1.97;44.86
61757;BME280;57225;61.460;24.060;2023-03-31T11:47:43;99242.19;;;2.18;45.65
61757;BME280;57225;61.460;24.060;2023-03-31T11:50:32;99249.19;;;2.64;49.60
61757;BME280;57225;61.460;24.060;2023-03-31T11:53:30;99245.75;;;1.95;47.03
61757;BME280;57225;61.460;24.060;2023-03-31T11:56:16;99238.72;;;2.21;48.80
61757;BME280;57225;61.460;24.060;2023-03-31T11:59:03;99238.53;;;1.87;46.62
61757;BME280;57225;61.460;24.060;2023-03-31T12:01:53;99246.41;;;2.12;48.89
61757;BME280;57225;61.460;24.060;2023-03-31T12:04:48;99237.81;;;2.96;46.98
61757;BME280;57225;61.460;24.060;2023-03-31T12:07:40;99242.97;;;3.01;46.54
61757;BME280;57225;61.460;24.060;2023-03-31T12:10:40;99238.28;;;3.72;46.51
61757;BME280;57225;61.460;24.060;2023-03-31T12:13:48;99237.63;;;2.81;45.23
61757;BME280;57225;61.460;24.060;2023-03-31T12:17:07;99230.81;;;3.02;46.93
61757;BME280;57225;61.460;24.060;2023-03-31T12:20:13;99222.75;;;3.53;47.68
61757;BME280;57225;61.460;24.060;2023-03-31T12:23:00;99222.09;;;3.67;46.28
61757;BME280;57225;61.460;24.060;2023-03-31T12:26:42;99230.38;;;3.67;43.87
61757;BME280;57225;61.460;24.060;2023-03-31T12:29:04;99208.44;;;3.03;43.74
61757;BME280;57225;61.460;24.060;2023-03-31T12:31:53;99211.91;;;3.74;46.22
61757;BME280;57225;61.460;24.060;2023-03-31T12:34:41;99215.59;;;3.89;45.31
61757;BME280;57225;61.460;24.060;2023-03-31T12:37:41;99215.03;;;3.29;41.11
61757;BME280;57225;61.460;24.060;2023-03-31T12:43:54;99216.72;;;3.40;44.05
61757;BME280;57225;61.460;24.060;2023-03-31T12:46:49;99208.63;;;3.21;47.09
61757;BME280;57225;61.460;24.060;2023-03-31T12:49:40;99217.44;;;2.70;41.84
61757;BME280;57225;61.460;24.060;2023-03-31T12:55:48;99208.38;;;3.00;43.46
61757;BME280;57225;61.460;24.060;2023-03-31T12:58:37;99207.34;;;3.89;43.72
61757;BME280;57225;61.460;24.060;2023-03-31T13:01:22;99200.31;;;3.98;42.83
61757;BME280;57225;61.460;24.060;2023-03-31T13:04:19;99210.63;;;4.05;43.46
61757;BME280;57225;61.460;24.060;2023-03-31T13:13:13;99196.44;;;3.59;47.90
61757;BME280;57225;61.460;24.060;2023-03-31T13:16:00;99202.97;;;3.84;40.70
61757;BME280;57225;61.460;24.060;2023-03-31T13:18:50;99197.78;;;2.72;44.43
61757;BME280;57225;61.460;24.060;2023-03-31T13:21:56;99191.97;;;2.21;43.89
61757;BME280;57225;61.460;24.060;2023-03-31T13:24:44;99202.03;;;2.66;49.89
61757;BME280;57225;61.460;24.060;2023-03-31T13:27:32;99197.69;;;2.95;44.61
61757;BME280;57225;61.460;24.060;2023-03-31T13:31:01;99201.03;;;3.11;45.70
61757;BME280;57225;61.460;24.060;2023-03-31T13:42:51;99197.63;;;2.91;45.47
61757;BME280;57225;61.460;24.060;2023-03-31T13:51:57;99207.72;;;2.80;43.52
61757;BME280;57225;61.460;24.060;2023-03-31T13:55:16;99202.66;;;2.52;46.04
61757;BME280;57225;61.460;24.060;2023-03-31T14:13:23;99204.41;;;1.66;50.36
61757;BME280;57225;61.460;24.060;2023-03-31T14:16:08;99203.25;;;1.44;47.51
61757;BME280;57225;61.460;24.060;2023-03-31T14:25:55;99193.75;;;1.18;48.30
61757;BME280;57225;61.460;24.060;2023-03-31T14:35:33;99202.53;;;1.28;50.04
61757;BME280;57225;61.460;24.060;2023-03-31T14:38:22;99203.78;;;1.30;52.18
61757;BME280;57225;61.460;24.060;2023-03-31T14:41:15;99213.34;;;1.40;50.74
61757;BME280;57225;61.460;24.060;2023-03-31T14:44:05;99197.22;;;1.15;52.30
61757;BME280;57225;61.460;24.060;2023-03-31T14:46:51;99207.47;;;1.18;50.22
61757;BME280;57225;61.460;24.060;2023-03-31T14:49:37;99205.81;;;1.14;50.04
61757;BME280;57225;61.460;24.060;2023-03-31T14:52:21;99195.50;;;1.07;49.60
61757;BME280;57225;61.460;24.060;2023-03-31T14:55:13;99208.78;;;1.05;53.47
61757;BME280;57225;61.460;24.060;2023-03-31T14:58:00;99204.66;;;0.96;51.64
61757;BME280;57225;61.460;24.060;2023-03-31T15:00:46;99206.84;;;0.87;50.55
61757;BME280;57225;61.460;24.060;2023-03-31T15:03:32;99209.09;;;1.00;52.87
61757;BME280;57225;61.460;24.060;2023-03-31T15:06:19;99210.44;;;0.91;51.47
61757;BME280;57225;61.460;24.060;2023-03-31T15:09:08;99215.44;;;0.85;53.07
61757;BME280;57225;61.460;24.060;2023-03-31T15:11:59;99208.13;;;0.73;50.82
61757;BME280;57225;61.460;24.060;2023-03-31T15:14:50;99213.91;;;0.68;50.14
61757;BME280;57225;61.460;24.060;2023-03-31T15:17:40;99212.22;;;0.64;51.43
61757;BME280;57225;61.460;24.060;2023-03-31T15:20:29;99211.16;;;0.68;51.44
61757;BME280;57225;61.460;24.060;2023-03-31T15:23:25;99207.97;;;0.66;51.10
61757;BME280;57225;61.460;24.060;2023-03-31T15:26:11;99213.91;;;0.68;50.24
61757;BME280;57225;61.460;24.060;2023-03-31T15:29:07;99197.66;;;0.60;50.01
61757;BME280;57225;61.460;24.060;2023-03-31T15:31:55;99207.03;;;0.59;53.01
61757;BME280;57225;61.460;24.060;2023-03-31T15:34:41;99200.59;;;0.51;52.18
61757;BME280;57225;61.460;24.060;2023-03-31T15:37:28;99201.69;;;0.47;53.37
61757;BME280;57225;61.460;24.060;2023-03-31T15:40:22;99209.38;;;0.41;52.33
61757;BME280;57225;61.460;24.060;2023-03-31T15:43:26;99207.44;;;0.42;55.04
61757;BME280;57225;61.460;24.060;2023-03-31T15:46:19;99210.63;;;0.44;52.64
61757;BME280;57225;61.460;24.060;2023-03-31T15:49:22;99207.44;;;0.42;52.14
61757;BME280;57225;61.460;24.060;2023-03-31T15:58:15;99212.88;;;0.22;52.58
61757;BME280;57225;61.460;24.060;2023-03-31T16:01:04;99202.25;;;0.21;54.68
61757;BME280;57225;61.460;24.060;2023-03-31T16:03:53;99207.75;;;0.21;52.84
61757;BME280;57225;61.460;24.060;2023-03-31T16:07:08;99216.69;;;0.02;57.47
61757;BME280;57225;61.460;24.060;2023-03-31T16:10:02;99217.88;;;-0.15;58.29
61757;BME280;57225;61.460;24.060;2023-03-31T16:13:05;99207.25;;;-0.48;60.24
61757;BME280;57225;61.460;24.060;2023-03-31T16:15:52;99217.41;;;-0.64;62.26
61757;BME280;57225;61.460;24.060;2023-03-31T16:18:45;99198.88;;;-0.98;65.80
61757;BME280;57225;61.460;24.060;2023-03-31T16:21:39;99222.47;;;-1.06;68.36
61757;BME280;57225;61.460;24.060;2023-03-31T16:24:30;99227.91;;;-1.22;71.08
61757;BME280;57225;61.460;24.060;2023-03-31T16:27:38;99227.28;;;-1.55;74.19
61757;BME280;57225;61.460;24.060;2023-03-31T16:30:37;99230.94;;;-1.63;75.11
61757;BME280;57225;61.460;24.060;2023-03-31T16:33:22;99222.53;;;-1.82;76.33
61757;BME280;57225;61.460;24.060;2023-03-31T16:36:07;99230.41;;;-2.05;77.83
61757;BME280;57225;61.460;24.060;2023-03-31T16:38:55;99229.94;;;-2.19;78.59
61757;BME280;57225;61.460;24.060;2023-03-31T16:41:42;99233.47;;;-2.31;82.21
61757;BME280;57225;61.460;24.060;2023-03-31T16:44:26;99238.81;;;-2.34;79.54
61757;BME280;57225;61.460;24.060;2023-03-31T16:47:11;99237.31;;;-2.44;79.85
61757;BME280;57225;61.460;24.060;2023-03-31T16:49:56;99243.66;;;-2.52;78.15
61757;BME280;57225;61.460;24.060;2023-03-31T16:52:41;99244.41;;;-2.64;80.18
61757;BME280;57225;61.460;24.060;2023-03-31T16:55:25;99242.94;;;-2.73;83.01
61757;BME280;57225;61.460;24.060;2023-03-31T16:58:10;99244.94;;;-2.83;81.88
61757;BME280;57225;61.460;24.060;2023-03-31T17:00:56;99254.66;;;-2.94;84.36
61757;BME280;57225;61.460;24.060;2023-03-31T17:03:41;99259.06;;;-3.01;82.29
61757;BME280;57225;61.460;24.060;2023-03-31T17:06:25;99258.94;;;-3.05;86.59
61757;BME280;57225;61.460;24.060;2023-03-31T17:09:11;99259.00;;;-3.13;87.44
61757;BME280;57225;61.460;24.060;2023-03-31T17:11:55;99262.59;;;-3.21;89.28
61757;BME280;57225;61.460;24.060;2023-03-31T17:14:40;99260.38;;;-3.28;89.39
61757;BME280;57225;61.460;24.060;2023-03-31T17:17:24;99265.25;;;-3.34;92.45
61757;BME280;57225;61.460;24.060;2023-03-31T17:20:09;99267.56;;;-3.44;92.29
61757;BME280;57225;61.460;24.060;2023-03-31T17:22:54;99269.41;;;-3.57;94.41